createdAt,value
2023-10-02T00:00:40.532Z,99.97
2023-10-02T00:03:10.303Z,99.14
2023-10-02T00:05:51.517Z,98.53
2023-10-02T00:08:41.667Z,98.19
2023-10-02T00:11:32.206Z,97.47
2023-10-02T00:14:18.248Z,96.63
2023-10-02T00:16:59.829Z,97.27
2023-10-02T00:19:39.974Z,95.79
2023-10-02T00:22:10.664Z,95.20
2023-10-02T00:24:39.130Z,97.27
2023-10-02T00:27:09.442Z,96.58
2023-10-02T00:29:36.605Z,96.60
2023-10-02T00:32:12.463Z,96.25
2023-10-02T00:34:39.675Z,97.01
2023-10-02T00:37:13.298Z,97.09
2023-10-02T00:39:40.844Z,97.49
2023-10-02T00:42:25.728Z,96.95
2023-10-02T00:44:57.566Z,97.39
2023-10-02T00:47:46.246Z,97.69
2023-10-02T00:50:20.182Z,97.56
2023-10-02T00:52:57.880Z,98.10
2023-10-02T00:55:25.462Z,98.75
2023-10-02T00:57:57.830Z,99.18
2023-10-02T01:00:37.568Z,99.98
2023-10-02T01:03:10.871Z,100.00
2023-10-02T01:05:52.080Z,100.00
2023-10-02T01:08:26.500Z,100.00
2023-10-02T01:11:00.353Z,100.00
2023-10-02T01:13:31.642Z,100.00
2023-10-02T01:16:01.170Z,100.00
2023-10-02T01:18:30.992Z,100.00
2023-10-02T01:21:00.392Z,100.00
2023-10-02T01:23:28.072Z,100.00
2023-10-02T01:25:58.568Z,100.00
2023-10-02T01:28:33.541Z,100.00
2023-10-02T01:31:20.092Z,100.00
2023-10-02T01:33:46.642Z,100.00
2023-10-02T01:36:13.173Z,100.00
2023-10-02T01:38:42.369Z,100.00
2023-10-02T01:41:09.737Z,100.00
2023-10-02T01:43:40.100Z,100.00
2023-10-02T01:46:08.135Z,100.00
2023-10-02T01:48:39.348Z,100.00
2023-10-02T01:51:21.871Z,100.00
2023-10-02T01:54:04.930Z,100.00
2023-10-02T01:56:35.619Z,100.00
2023-10-02T01:59:12.730Z,100.00
2023-10-02T02:01:59.945Z,100.00
2023-10-02T02:04:35.083Z,100.00
2023-10-02T02:07:03.144Z,100.00
2023-10-02T02:09:38.385Z,100.00
2023-10-02T02:12:07.608Z,100.00
2023-10-02T02:14:50.923Z,100.00
2023-10-02T02:17:28.909Z,100.00
2023-10-02T02:20:00.865Z,100.00
2023-10-02T02:22:32.387Z,100.00
2023-10-02T02:25:00.198Z,100.00
2023-10-02T02:27:26.900Z,100.00
2023-10-02T02:29:57.781Z,100.00
2023-10-02T02:32:38.931Z,100.00
2023-10-02T02:35:07.549Z,100.00
2023-10-02T02:37:34.488Z,100.00
2023-10-02T02:40:23.292Z,100.00
2023-10-02T02:42:53.675Z,100.00
2023-10-02T02:45:32.027Z,100.00
2023-10-02T02:48:04.904Z,100.00
2023-10-02T02:50:38.918Z,100.00
2023-10-02T02:53:18.379Z,100.00
2023-10-02T02:55:45.907Z,100.00
2023-10-02T02:58:13.232Z,100.00
2023-10-02T03:00:40.851Z,100.00
2023-10-02T03:03:27.078Z,100.00
2023-10-02T03:05:59.894Z,100.00
2023-10-02T03:08:38.776Z,100.00
2023-10-02T03:11:09.188Z,100.00
2023-10-02T03:13:36.028Z,100.00
2023-10-02T03:16:13.865Z,100.00
2023-10-02T03:18:44.549Z,100.00
2023-10-02T03:21:25.864Z,100.00
2023-10-02T03:23:55.461Z,100.00
2023-10-02T03:26:35.735Z,100.00
2023-10-02T03:29:07.025Z,100.00
2023-10-02T03:31:45.520Z,100.00
2023-10-02T03:34:33.280Z,100.00
2023-10-02T03:37:09.322Z,100.00
2023-10-02T03:39:58.065Z,100.00
2023-10-02T03:42:26.533Z,100.00
2023-10-02T03:44:59.765Z,100.00
2023-10-02T03:47:32.134Z,100.00
2023-10-02T03:50:03.283Z,100.00
2023-10-02T03:52:32.603Z,100.00
2023-10-02T03:55:15.176Z,100.00
2023-10-02T03:57:48.655Z,100.00
2023-10-02T04:00:27.201Z,100.00
2023-10-02T04:02:57.599Z,100.00
2023-10-02T04:05:33.024Z,100.00
2023-10-02T04:08:14.456Z,100.00
2023-10-02T04:10:59.118Z,100.00
2023-10-02T04:13:30.433Z,100.00
2023-10-02T04:16:16.951Z,100.00
2023-10-02T04:18:47.195Z,100.00
2023-10-02T04:21:15.095Z,100.00
2023-10-02T04:23:43.731Z,100.00
2023-10-02T04:26:20.753Z,100.00
2023-10-02T04:28:56.397Z,100.00
2023-10-02T04:31:31.871Z,100.00
2023-10-02T04:34:17.574Z,100.00
2023-10-02T04:36:44.704Z,100.00
2023-10-02T04:39:33.070Z,100.00
2023-10-02T04:42:20.057Z,100.00
2023-10-02T04:44:49.788Z,100.00
2023-10-02T04:47:19.445Z,100.00
2023-10-02T04:50:09.204Z,100.00
2023-10-02T04:52:56.732Z,100.00
2023-10-02T04:55:45.115Z,100.00
2023-10-02T04:58:20.101Z,100.00
2023-10-02T05:01:04.922Z,100.00
2023-10-02T05:03:33.829Z,100.00
2023-10-02T05:06:00.671Z,100.00
2023-10-02T05:08:50.641Z,100.00
2023-10-02T05:11:27.630Z,100.00
2023-10-02T05:13:58.811Z,100.00
2023-10-02T05:16:40.128Z,100.00
2023-10-02T05:19:08.505Z,100.00
2023-10-02T05:21:50.749Z,100.00
2023-10-02T05:24:19.560Z,100.00
2023-10-02T05:26:47.817Z,100.00
2023-10-02T05:29:19.026Z,100.00
2023-10-02T05:31:46.402Z,100.00
2023-10-02T05:34:17.630Z,100.00
2023-10-02T05:37:04.131Z,100.00
2023-10-02T05:39:51.508Z,100.00
2023-10-02T05:42:18.001Z,100.00
2023-10-02T05:44:45.645Z,100.00
2023-10-02T05:47:16.862Z,100.00
2023-10-02T05:49:51.286Z,100.00
2023-10-02T05:52:25.076Z,100.00
2023-10-02T05:54:55.485Z,100.00
2023-10-02T05:57:32.672Z,100.00
2023-10-02T06:00:01.540Z,100.00
2023-10-02T06:02:28.735Z,100.00
2023-10-02T06:05:05.548Z,100.00
2023-10-02T06:07:52.343Z,100.00
2023-10-02T06:10:28.257Z,100.00
2023-10-02T06:13:04.731Z,100.00
2023-10-02T06:15:45.046Z,100.00
2023-10-02T06:18:11.625Z,100.00
2023-10-02T06:20:56.287Z,100.00
2023-10-02T06:23:23.918Z,100.00
2023-10-02T06:25:50.654Z,100.00
2023-10-02T06:28:29.556Z,100.00
2023-10-02T06:30:56.282Z,100.00
2023-10-02T06:33:23.793Z,100.00
2023-10-02T06:35:58.528Z,100.00
2023-10-02T06:38:25.330Z,100.00
2023-10-02T06:40:57.898Z,100.00
2023-10-02T06:43:32.873Z,100.00
2023-10-02T06:46:07.709Z,100.00
2023-10-02T06:48:35.578Z,100.00
2023-10-02T06:51:04.356Z,100.00
2023-10-02T06:53:31.786Z,100.00
2023-10-02T06:56:08.207Z,100.00
2023-10-02T06:58:48.043Z,100.00
2023-10-02T07:01:15.122Z,100.00
2023-10-02T07:03:41.867Z,100.00
2023-10-02T07:06:11.312Z,100.00
2023-10-02T07:08:40.816Z,100.00
2023-10-02T07:11:12.223Z,100.00
2023-10-02T07:13:52.169Z,100.00
2023-10-02T07:16:18.821Z,100.00
2023-10-02T07:18:50.871Z,100.00
2023-10-02T07:21:20.857Z,100.00
2023-10-02T07:23:47.442Z,100.00
2023-10-02T07:26:21.925Z,100.00
2023-10-02T07:28:52.144Z,100.00
2023-10-02T07:31:23.430Z,100.00
2023-10-02T07:33:56.206Z,100.00
2023-10-02T07:36:27.687Z,100.00
2023-10-02T07:38:54.284Z,100.00
2023-10-02T07:41:24.830Z,99.85
2023-10-02T07:43:56.265Z,99.90
2023-10-02T07:46:24.010Z,98.88
2023-10-02T07:48:58.465Z,97.14
2023-10-02T07:51:31.996Z,97.01
2023-10-02T07:53:59.677Z,95.02
2023-10-02T07:56:28.467Z,91.93
2023-10-02T07:59:02.278Z,89.15
2023-10-02T08:01:30.097Z,86.39
2023-10-02T08:03:57.189Z,86.21
2023-10-02T08:06:34.670Z,86.75
2023-10-02T08:09:22.313Z,84.18
2023-10-02T08:11:52.276Z,83.08
2023-10-02T08:14:39.436Z,81.21
2023-10-02T08:17:19.296Z,80.85
2023-10-02T08:19:56.012Z,78.70
2023-10-02T08:22:24.543Z,78.44
2023-10-02T08:24:52.008Z,77.86
2023-10-02T08:27:18.986Z,77.55
2023-10-02T08:29:45.856Z,74.36
2023-10-02T08:32:13.150Z,73.91
2023-10-02T08:34:39.852Z,73.50
2023-10-02T08:37:06.699Z,74.01
2023-10-02T08:39:37.757Z,75.17
2023-10-02T08:42:10.994Z,74.45
2023-10-02T08:44:41.931Z,75.06
2023-10-02T08:47:09.054Z,75.50
2023-10-02T08:49:36.902Z,75.67
2023-10-02T08:52:08.252Z,75.35
2023-10-02T08:54:34.789Z,74.52
2023-10-02T08:57:09.513Z,74.83
2023-10-02T08:59:42.903Z,74.56
2023-10-02T09:02:16.959Z,74.41
2023-10-02T09:04:53.025Z,74.38
2023-10-02T09:07:23.658Z,73.41
2023-10-02T09:10:05.047Z,74.38
2023-10-02T09:12:31.496Z,73.99
2023-10-02T09:15:31.350Z,72.37
2023-10-02T09:17:59.156Z,72.69
2023-10-02T09:20:40.080Z,72.78
2023-10-02T09:23:09.783Z,72.35
2023-10-02T09:25:41.759Z,71.57
2023-10-02T09:28:17.674Z,71.09
2023-10-02T09:30:44.274Z,71.45
2023-10-02T09:33:17.524Z,69.82
2023-10-02T09:36:19.834Z,69.55
2023-10-02T09:38:44.311Z,68.00
2023-10-02T09:41:17.370Z,68.14
2023-10-02T09:43:44.028Z,68.08
2023-10-02T09:46:22.574Z,67.89
2023-10-02T09:48:58.478Z,67.47
2023-10-02T09:51:27.639Z,65.55
2023-10-02T09:54:06.592Z,63.88
2023-10-02T09:56:38.953Z,64.45
2023-10-02T09:59:17.328Z,65.21
2023-10-02T10:02:10.106Z,63.89
2023-10-02T10:05:15.151Z,63.77
2023-10-02T10:07:53.785Z,62.41
2023-10-02T10:10:29.535Z,62.40
2023-10-02T10:12:56.771Z,62.80
2023-10-02T10:15:27.406Z,62.37
2023-10-02T10:17:57.028Z,62.83
2023-10-02T10:20:26.643Z,64.04
2023-10-02T10:22:56.290Z,65.03
2023-10-02T10:25:23.098Z,61.54
2023-10-02T10:27:56.654Z,57.71
2023-10-02T10:30:23.253Z,58.16
2023-10-02T10:33:02.798Z,60.00
2023-10-02T10:35:34.583Z,58.79
2023-10-02T10:38:04.259Z,58.79
2023-10-02T10:40:45.764Z,56.60
2023-10-02T10:43:15.248Z,56.37
2023-10-02T10:45:42.149Z,57.18
2023-10-02T10:48:24.469Z,58.04
2023-10-02T10:51:07.996Z,57.36
2023-10-02T10:53:34.468Z,56.04
2023-10-02T10:56:06.726Z,56.02
2023-10-02T10:58:36.157Z,56.76
2023-10-02T11:01:06.933Z,57.24
2023-10-02T11:03:33.618Z,58.19
2023-10-02T11:06:02.888Z,56.93
2023-10-02T11:08:30.373Z,56.94
2023-10-02T11:11:07.777Z,57.13
2023-10-02T11:13:55.237Z,57.52
2023-10-02T11:16:32.187Z,54.77
2023-10-02T11:19:20.606Z,52.49
2023-10-02T11:22:03.554Z,51.72
2023-10-02T11:24:30.302Z,56.13
2023-10-02T11:27:06.415Z,56.87
2023-10-02T11:29:41.922Z,54.12
2023-10-02T11:32:22.538Z,53.21
2023-10-02T11:34:49.226Z,52.46
2023-10-02T11:37:16.532Z,52.18
2023-10-02T11:39:43.895Z,52.86
2023-10-02T11:42:10.726Z,53.33
2023-10-02T11:44:40.947Z,53.10
2023-10-02T11:47:10.945Z,51.68
2023-10-02T11:49:38.368Z,51.54
2023-10-02T11:52:05.698Z,50.39
2023-10-02T11:54:37.719Z,51.52
2023-10-02T11:57:09.661Z,52.89
2023-10-02T11:59:44.458Z,51.45
2023-10-02T12:02:14.943Z,53.72
2023-10-02T12:04:41.697Z,53.83
2023-10-02T12:07:08.271Z,54.24
2023-10-02T12:09:35.134Z,52.00
2023-10-02T12:12:01.971Z,52.35
2023-10-02T12:14:30.042Z,51.36
2023-10-02T12:16:58.644Z,50.97
2023-10-02T12:19:26.685Z,48.82
2023-10-02T12:22:07.446Z,50.32
2023-10-02T12:24:36.871Z,47.14
2023-10-02T12:27:11.721Z,48.32
2023-10-02T12:29:39.067Z,45.74
2023-10-02T12:32:06.978Z,44.58
2023-10-02T12:34:35.271Z,42.53
2023-10-02T12:37:01.985Z,43.25
2023-10-02T12:39:30.440Z,42.87
2023-10-02T12:41:57.214Z,44.21
2023-10-02T12:44:23.786Z,44.99
2023-10-02T12:46:51.687Z,44.56
2023-10-02T12:49:22.512Z,45.78
2023-10-02T12:51:51.171Z,45.04
2023-10-02T12:54:18.019Z,46.13
2023-10-02T12:56:46.640Z,45.61
2023-10-02T12:59:13.550Z,44.04
2023-10-02T13:01:40.315Z,42.40
2023-10-02T13:04:07.848Z,42.17
2023-10-02T13:06:34.989Z,42.31
2023-10-02T13:09:17.211Z,43.59
2023-10-02T13:11:48.661Z,44.26
2023-10-02T13:14:19.510Z,44.15
2023-10-02T13:16:47.766Z,43.96
2023-10-02T13:19:14.328Z,43.59
2023-10-02T13:21:45.088Z,43.90
2023-10-02T13:24:15.958Z,43.54
2023-10-02T13:26:42.872Z,42.93
2023-10-02T13:29:09.479Z,44.28
2023-10-02T13:31:36.022Z,43.56
2023-10-02T13:34:06.273Z,43.05
2023-10-02T13:36:34.318Z,41.56
2023-10-02T13:39:01.375Z,39.85
2023-10-02T13:41:29.167Z,39.18
2023-10-02T13:44:00.795Z,37.97
2023-10-02T13:46:27.749Z,37.35
2023-10-02T13:48:54.471Z,37.04
2023-10-02T13:51:22.046Z,37.46
2023-10-02T13:53:50.544Z,36.47
2023-10-02T13:56:22.162Z,36.49
2023-10-02T13:58:51.217Z,35.58
2023-10-02T14:01:21.361Z,34.56
2023-10-02T14:03:52.918Z,34.94
2023-10-02T14:06:20.994Z,34.46
2023-10-02T14:08:48.309Z,33.44
2023-10-02T14:11:18.124Z,33.66
2023-10-02T14:13:54.247Z,33.70
2023-10-02T14:16:21.287Z,34.52
2023-10-02T14:18:53.020Z,33.58
2023-10-02T14:21:22.600Z,34.55
2023-10-02T14:23:49.509Z,34.39
2023-10-02T14:26:16.007Z,33.63
2023-10-02T14:28:42.431Z,34.09
2023-10-02T14:31:09.057Z,33.40
2023-10-02T14:33:35.880Z,34.66
2023-10-02T14:36:08.409Z,33.91
2023-10-02T14:38:35.773Z,34.25
2023-10-02T14:41:02.873Z,33.54
2023-10-02T14:43:29.582Z,33.46
2023-10-02T14:45:58.856Z,33.26
2023-10-02T14:48:44.445Z,33.10
2023-10-02T14:51:13.327Z,33.12
2023-10-02T14:53:40.677Z,33.01
2023-10-02T14:56:07.183Z,32.09
2023-10-02T14:58:33.868Z,32.15
2023-10-02T15:01:00.404Z,32.28
2023-10-02T15:03:26.973Z,32.75
2023-10-02T15:05:53.567Z,32.10
2023-10-02T15:08:20.541Z,31.94
2023-10-02T15:10:48.035Z,33.30
2023-10-02T15:13:15.345Z,33.04
2023-10-02T15:15:41.817Z,33.09
2023-10-02T15:18:09.864Z,33.38
2023-10-02T15:20:38.188Z,32.42
2023-10-02T15:23:04.791Z,32.40
2023-10-02T15:25:31.602Z,32.34
2023-10-02T15:28:01.452Z,32.31
2023-10-02T15:30:27.934Z,32.35
2023-10-02T15:32:55.948Z,33.04
2023-10-02T15:35:25.918Z,32.66
2023-10-02T15:37:56.175Z,33.97
2023-10-02T15:40:23.625Z,35.17
2023-10-02T15:42:51.846Z,34.84
2023-10-02T15:45:20.949Z,34.95
2023-10-02T15:47:48.471Z,36.05
2023-10-02T15:50:15.900Z,38.15
2023-10-02T15:52:42.958Z,38.90
2023-10-02T15:55:11.116Z,39.80
2023-10-02T15:57:43.652Z,41.20
2023-10-02T16:00:10.376Z,42.55
2023-10-02T16:02:44.241Z,45.63
2023-10-02T16:05:12.219Z,46.84
2023-10-02T16:07:39.377Z,49.27
2023-10-02T16:10:11.609Z,54.75
2023-10-02T16:12:40.158Z,56.33
2023-10-02T16:15:15.764Z,58.69
2023-10-02T16:17:43.789Z,61.25
2023-10-02T16:20:19.980Z,61.08
2023-10-02T16:22:47.588Z,62.02
2023-10-02T16:25:18.479Z,62.53
2023-10-02T16:27:48.017Z,65.62
2023-10-02T16:30:15.247Z,67.08
2023-10-02T16:32:44.372Z,68.16
2023-10-02T16:35:11.199Z,68.77
2023-10-02T16:37:41.850Z,69.04
2023-10-02T16:40:12.353Z,69.85
2023-10-02T16:42:39.284Z,71.01
2023-10-02T16:45:05.971Z,71.74
2023-10-02T16:47:33.094Z,72.68
2023-10-02T16:49:59.813Z,74.09
2023-10-02T16:52:26.241Z,76.31
2023-10-02T16:54:52.771Z,78.22
2023-10-02T16:57:19.227Z,78.18
2023-10-02T16:59:45.803Z,78.65
2023-10-02T17:02:12.986Z,77.87
2023-10-02T17:04:39.569Z,79.11
2023-10-02T17:07:06.097Z,79.35
2023-10-02T17:09:33.058Z,80.25
2023-10-02T17:12:00.764Z,81.12
2023-10-02T17:14:27.539Z,81.96
2023-10-02T17:16:56.624Z,81.09
2023-10-02T17:19:25.581Z,81.85
2023-10-02T17:21:53.165Z,83.23
2023-10-02T17:24:20.163Z,82.31
2023-10-02T17:26:48.291Z,83.45
2023-10-02T17:29:17.648Z,82.95
2023-10-02T17:31:44.489Z,82.11
2023-10-02T17:34:11.672Z,83.19
2023-10-02T17:36:40.940Z,84.04
2023-10-02T17:39:08.407Z,83.75
2023-10-02T17:41:35.071Z,83.21
2023-10-02T17:44:01.730Z,83.75
2023-10-02T17:46:28.267Z,83.68
2023-10-02T17:48:54.897Z,83.61
2023-10-02T17:51:21.453Z,83.01
2023-10-02T17:53:50.325Z,81.58
2023-10-02T17:56:17.035Z,82.10
2023-10-02T17:58:43.664Z,82.51
2023-10-02T18:01:10.270Z,82.44
2023-10-02T18:03:37.135Z,81.71
2023-10-02T18:06:03.797Z,82.68
2023-10-02T18:08:30.540Z,82.43
2023-10-02T18:10:57.671Z,81.14
2023-10-02T18:13:25.125Z,80.92
2023-10-02T18:15:52.187Z,79.91
2023-10-02T18:18:20.119Z,79.67
2023-10-02T18:20:49.316Z,79.42
2023-10-02T18:23:15.854Z,80.08
2023-10-02T18:25:51.252Z,82.34
2023-10-02T18:28:17.802Z,85.49
2023-10-02T18:30:46.419Z,85.32
2023-10-02T18:33:13.550Z,84.59
2023-10-02T18:35:40.138Z,86.51
2023-10-02T18:38:06.610Z,87.95
2023-10-02T18:40:33.561Z,88.28
2023-10-02T18:43:00.126Z,88.86
2023-10-02T18:45:26.485Z,89.13
2023-10-02T18:47:53.134Z,89.29
2023-10-02T18:50:19.591Z,89.48
2023-10-02T18:52:46.450Z,89.58
2023-10-02T18:55:13.282Z,89.61
2023-10-02T18:57:40.174Z,89.57
2023-10-02T19:00:12.383Z,89.83
2023-10-02T19:02:39.371Z,90.42
2023-10-02T19:05:06.292Z,90.40
2023-10-02T19:07:32.695Z,90.71
2023-10-02T19:09:59.923Z,91.17
2023-10-02T19:12:26.320Z,89.94
2023-10-02T19:14:53.502Z,89.70
2023-10-02T19:17:23.322Z,89.61
2023-10-02T19:19:50.580Z,89.51
2023-10-02T19:22:16.954Z,89.63
2023-10-02T19:24:43.381Z,90.49
2023-10-02T19:27:09.769Z,90.54
2023-10-02T19:29:36.243Z,91.11
2023-10-02T19:32:03.303Z,90.96
2023-10-02T19:34:29.766Z,91.07
2023-10-02T19:36:56.214Z,90.41
2023-10-02T19:39:22.599Z,90.53
2023-10-02T19:41:49.367Z,89.92
2023-10-02T19:44:15.998Z,89.48
2023-10-02T19:46:42.536Z,90.90
2023-10-02T19:49:08.907Z,92.28
2023-10-02T19:51:36.108Z,91.38
2023-10-02T19:54:03.133Z,92.74
2023-10-02T19:56:29.684Z,93.77
2023-10-02T19:58:56.189Z,94.62
2023-10-02T20:01:22.713Z,94.68
2023-10-02T20:03:49.353Z,94.70
2023-10-02T20:06:20.100Z,94.37
2023-10-02T20:08:46.926Z,93.79
2023-10-02T20:11:13.571Z,93.48
2023-10-02T20:13:40.676Z,93.28
2023-10-02T20:16:08.162Z,92.18
2023-10-02T20:18:34.664Z,91.41
2023-10-02T20:21:05.614Z,90.51
2023-10-02T20:23:49.677Z,89.40
2023-10-02T20:26:17.016Z,88.33
2023-10-02T20:28:43.519Z,87.09
2023-10-02T20:31:11.319Z,85.97
2023-10-02T20:33:38.047Z,84.54
2023-10-02T20:36:07.853Z,83.81
2023-10-02T20:38:35.117Z,83.43
2023-10-02T20:41:01.755Z,83.04
2023-10-02T20:43:29.009Z,82.79
2023-10-02T20:45:56.157Z,82.54
2023-10-02T20:48:22.865Z,82.56
2023-10-02T20:50:49.931Z,81.99
2023-10-02T20:53:16.474Z,81.96
2023-10-02T20:55:43.491Z,82.03
2023-10-02T20:58:12.164Z,82.29
2023-10-02T21:00:42.146Z,81.56
2023-10-02T21:03:08.793Z,80.71
2023-10-02T21:05:35.684Z,80.59
2023-10-02T21:08:02.436Z,81.04
2023-10-02T21:10:28.874Z,81.33
2023-10-02T21:12:55.325Z,82.35
2023-10-02T21:15:21.933Z,82.77
2023-10-02T21:17:48.656Z,83.24
2023-10-02T21:20:16.516Z,83.54
2023-10-02T21:22:46.753Z,83.33
2023-10-02T21:25:17.008Z,83.14
2023-10-02T21:27:44.194Z,82.52
2023-10-02T21:30:14.651Z,81.91
2023-10-02T21:32:42.914Z,81.53
2023-10-02T21:35:10.799Z,80.86
2023-10-02T21:37:37.995Z,80.58
2023-10-02T21:40:07.829Z,80.76
2023-10-02T21:42:35.658Z,80.99
2023-10-02T21:45:03.125Z,81.97
2023-10-02T21:47:30.550Z,82.64
2023-10-02T21:49:57.700Z,82.11
2023-10-02T21:52:24.365Z,82.68
2023-10-02T21:54:54.660Z,84.34
2023-10-02T21:57:23.169Z,85.65
2023-10-02T21:59:50.806Z,86.13
2023-10-02T22:02:18.954Z,86.66
2023-10-02T22:04:46.605Z,87.48
2023-10-02T22:07:13.095Z,88.74
2023-10-02T22:09:40.798Z,89.46
2023-10-02T22:12:07.789Z,89.61
2023-10-02T22:14:35.277Z,90.19
2023-10-02T22:17:07.974Z,90.64
2023-10-02T22:19:34.545Z,91.17
2023-10-02T22:22:01.083Z,92.55
2023-10-02T22:24:28.518Z,93.61
2023-10-02T22:26:55.011Z,94.69
2023-10-02T22:29:21.503Z,95.89
2023-10-02T22:31:48.055Z,96.98
2023-10-02T22:34:23.883Z,97.53
2023-10-02T22:37:01.766Z,97.45
2023-10-02T22:39:34.136Z,97.22
2023-10-02T22:42:01.649Z,99.25
2023-10-02T22:44:28.516Z,100.00
2023-10-02T22:46:55.950Z,100.00
2023-10-02T22:49:22.485Z,100.00
2023-10-02T22:51:49.839Z,100.00
2023-10-02T22:54:16.395Z,100.00
2023-10-02T22:56:42.871Z,100.00
2023-10-02T22:59:09.419Z,100.00
2023-10-02T23:01:35.924Z,100.00
2023-10-02T23:04:07.395Z,100.00
2023-10-02T23:06:34.064Z,100.00
2023-10-02T23:09:00.940Z,100.00
2023-10-02T23:11:28.511Z,100.00
2023-10-02T23:13:56.091Z,100.00
2023-10-02T23:16:23.633Z,100.00
2023-10-02T23:18:50.713Z,100.00
2023-10-02T23:21:18.185Z,100.00
2023-10-02T23:23:46.279Z,100.00
2023-10-02T23:26:17.735Z,100.00
2023-10-02T23:28:45.249Z,100.00
2023-10-02T23:31:12.289Z,100.00
2023-10-02T23:33:40.359Z,100.00
2023-10-02T23:36:11.558Z,100.00
2023-10-02T23:38:43.155Z,100.00
2023-10-02T23:41:10.766Z,100.00
2023-10-02T23:43:37.678Z,100.00
2023-10-02T23:46:04.536Z,100.00
2023-10-02T23:48:31.418Z,100.00
2023-10-02T23:50:58.425Z,99.44
2023-10-02T23:53:26.111Z,99.74
2023-10-02T23:55:59.807Z,100.00
2023-10-02T23:58:27.323Z,100.00
